createdAt,value
2022-11-07T00:00:29.154Z,1001.59
2022-11-07T00:01:27.618Z,1001.49
2022-11-07T00:02:28.775Z,1001.42
2022-11-07T00:03:28.098Z,1001.45
2022-11-07T00:04:28.401Z,1001.51
2022-11-07T00:05:28.704Z,1001.50
2022-11-07T00:06:30.882Z,1001.54
2022-11-07T00:07:31.064Z,1001.52
2022-11-07T00:08:31.254Z,1001.54
2022-11-07T00:09:31.434Z,1001.59
2022-11-07T00:10:32.121Z,1001.52
2022-11-07T00:11:30.495Z,1001.53
2022-11-07T00:12:32.686Z,1001.52
2022-11-07T00:13:32.854Z,1001.45
2022-11-07T00:14:33.041Z,1001.49
2022-11-07T00:15:33.214Z,1001.51
2022-11-07T00:16:33.893Z,1001.57
2022-11-07T00:17:32.294Z,1001.57
2022-11-07T00:18:34.466Z,1001.52
2022-11-07T00:19:32.855Z,1001.68
2022-11-07T00:20:35.051Z,1001.54
2022-11-07T00:21:33.432Z,1001.54
2022-11-07T00:22:35.622Z,1001.55
2022-11-07T00:23:35.807Z,1001.61
2022-11-07T00:24:34.318Z,1001.56
2022-11-07T00:25:36.495Z,1001.58
2022-11-07T00:26:36.666Z,1001.59
2022-11-07T00:27:35.244Z,1001.60
2022-11-07T00:28:35.508Z,1001.55
2022-11-07T00:29:35.812Z,1001.62
2022-11-07T00:30:36.158Z,1001.73
2022-11-07T00:31:38.301Z,1001.73
2022-11-07T00:32:36.687Z,1001.53
2022-11-07T00:33:38.865Z,1001.57
2022-11-07T00:34:37.242Z,1001.65
2022-11-07T00:35:40.911Z,1001.77
2022-11-07T00:36:37.827Z,1001.52
2022-11-07T00:37:40.021Z,1001.54
2022-11-07T00:38:38.417Z,1001.50
2022-11-07T00:39:38.723Z,1001.44
2022-11-07T00:40:39.047Z,1001.63
2022-11-07T00:41:39.351Z,1001.47
2022-11-07T00:42:41.545Z,1001.47
2022-11-07T00:43:39.923Z,1001.52
2022-11-07T00:44:41.153Z,1001.48
2022-11-07T00:45:41.487Z,1001.57
2022-11-07T00:46:41.729Z,1001.52
2022-11-07T00:47:43.065Z,1001.43
2022-11-07T00:48:43.245Z,1001.47
2022-11-07T00:49:42.466Z,1001.60
2022-11-07T00:50:42.946Z,1001.54
2022-11-07T00:51:42.410Z,1001.47
2022-11-07T00:52:44.362Z,1001.45
2022-11-07T00:53:44.535Z,1001.50
2022-11-07T00:54:43.165Z,1001.41
2022-11-07T00:55:43.478Z,1001.40
2022-11-07T00:56:43.798Z,1001.48
2022-11-07T00:57:44.100Z,1001.48
2022-11-07T00:58:46.281Z,1001.52
2022-11-07T00:59:44.670Z,1001.48
2022-11-07T01:00:45.771Z,1001.59
2022-11-07T01:01:45.344Z,1001.62
2022-11-07T01:02:45.641Z,1001.54
2022-11-07T01:03:47.708Z,1001.55
2022-11-07T01:04:46.096Z,1001.48
2022-11-07T01:05:46.416Z,1001.56
2022-11-07T01:06:46.730Z,1001.60
2022-11-07T01:07:47.032Z,1001.58
2022-11-07T01:08:49.217Z,1001.52
2022-11-07T01:09:47.603Z,1001.62
2022-11-07T01:10:50.711Z,1001.59
2022-11-07T01:11:48.238Z,1001.56
2022-11-07T01:12:50.415Z,1001.57
2022-11-07T01:13:51.550Z,1001.59
2022-11-07T01:14:49.069Z,1001.57
2022-11-07T01:15:49.381Z,1001.54
2022-11-07T01:16:49.723Z,1001.50
2022-11-07T01:17:49.918Z,1001.54
2022-11-07T01:18:50.234Z,1001.56
2022-11-07T01:19:52.472Z,1001.49
2022-11-07T01:20:51.799Z,1001.53
2022-11-07T01:21:51.152Z,1001.54
2022-11-07T01:22:51.450Z,1001.55
2022-11-07T01:23:53.630Z,1001.58
2022-11-07T01:24:52.018Z,1001.59
2022-11-07T01:25:52.333Z,1001.57
2022-11-07T01:26:52.643Z,1001.58
2022-11-07T01:27:52.947Z,1001.53
2022-11-07T01:28:55.127Z,1001.55
2022-11-07T01:29:53.509Z,1001.53
2022-11-07T01:30:53.832Z,1001.68
2022-11-07T01:31:54.136Z,1001.57
2022-11-07T01:32:54.451Z,1001.62
2022-11-07T01:33:56.636Z,1001.55
2022-11-07T01:34:55.023Z,1001.63
2022-11-07T01:35:58.086Z,1001.56
2022-11-07T01:36:55.654Z,1001.61
2022-11-07T01:37:55.957Z,1001.61
2022-11-07T01:38:58.137Z,1001.75
2022-11-07T01:39:56.518Z,1001.59
2022-11-07T01:40:57.866Z,1001.64
2022-11-07T01:41:59.031Z,1001.77
2022-11-07T01:42:58.374Z,1001.77
2022-11-07T01:43:58.594Z,1001.66
2022-11-07T01:44:59.804Z,1001.56
2022-11-07T01:46:00.945Z,1001.76
2022-11-07T01:47:00.182Z,1001.63
2022-11-07T01:47:59.850Z,1001.71
2022-11-07T01:49:00.096Z,1001.58
2022-11-07T01:49:59.460Z,1001.51
2022-11-07T01:50:59.864Z,1001.80
2022-11-07T01:52:01.978Z,1001.62
2022-11-07T01:53:00.365Z,1001.56
2022-11-07T01:54:01.557Z,1001.65
2022-11-07T01:55:00.925Z,1001.56
2022-11-07T01:56:01.266Z,1001.61
2022-11-07T01:57:03.466Z,1001.58
2022-11-07T01:58:03.650Z,1001.48
2022-11-07T01:59:03.846Z,1001.54
2022-11-07T02:00:04.021Z,1001.48
2022-11-07T02:01:03.812Z,1001.50
2022-11-07T02:02:05.111Z,1001.49
2022-11-07T02:03:05.221Z,1001.50
2022-11-07T02:04:05.325Z,1001.50
2022-11-07T02:05:05.508Z,1001.56
2022-11-07T02:06:07.639Z,1001.56
2022-11-07T02:07:04.557Z,1001.54
2022-11-07T02:08:06.738Z,1001.47
2022-11-07T02:09:06.935Z,1001.58
2022-11-07T02:10:07.115Z,1001.45
2022-11-07T02:11:05.778Z,1001.39
2022-11-07T02:12:06.095Z,1001.43
2022-11-07T02:13:08.268Z,1001.42
2022-11-07T02:14:06.645Z,1001.54
2022-11-07T02:15:08.809Z,1001.39
2022-11-07T02:16:10.462Z,1001.58
2022-11-07T02:17:07.486Z,1001.73
2022-11-07T02:18:09.665Z,1001.46
2022-11-07T02:19:09.852Z,1001.48
2022-11-07T02:20:08.362Z,1001.45
2022-11-07T02:21:10.551Z,1001.43
2022-11-07T02:22:08.933Z,1001.46
2022-11-07T02:23:09.241Z,1001.54
2022-11-07T02:24:09.551Z,1001.70
2022-11-07T02:25:11.732Z,1001.65
2022-11-07T02:26:12.902Z,1001.61
2022-11-07T02:27:12.098Z,1001.56
2022-11-07T02:28:10.732Z,1001.63
2022-11-07T02:29:11.053Z,1001.64
2022-11-07T02:30:13.220Z,1001.68
2022-11-07T02:31:11.620Z,1001.64
2022-11-07T02:32:11.921Z,1001.58
2022-11-07T02:33:14.403Z,1001.52
2022-11-07T02:34:12.459Z,1001.60
2022-11-07T02:35:12.768Z,1001.70
2022-11-07T02:36:14.966Z,1001.61
2022-11-07T02:37:13.349Z,1001.55
2022-11-07T02:38:15.558Z,1001.62
2022-11-07T02:39:13.941Z,1001.62
2022-11-07T02:40:14.247Z,1001.60
2022-11-07T02:41:16.441Z,1001.57
2022-11-07T02:42:14.817Z,1001.56
2022-11-07T02:43:15.403Z,1001.61
2022-11-07T02:44:15.393Z,1001.54
2022-11-07T02:45:15.699Z,1001.61
2022-11-07T02:46:17.891Z,1001.57
2022-11-07T02:47:16.263Z,1001.58
2022-11-07T02:48:16.574Z,1001.60
2022-11-07T02:49:16.878Z,1001.61
2022-11-07T02:50:19.059Z,1001.58
2022-11-07T02:51:19.244Z,1001.64
2022-11-07T02:52:17.753Z,1001.65
2022-11-07T02:53:18.271Z,1001.65
2022-11-07T02:54:18.396Z,1001.59
2022-11-07T02:55:18.706Z,1001.61
2022-11-07T02:56:20.893Z,1001.57
2022-11-07T02:57:19.281Z,1001.54
2022-11-07T02:58:19.590Z,1001.50
2022-11-07T02:59:23.016Z,1001.54
2022-11-07T03:00:22.208Z,1001.53
2022-11-07T03:01:23.537Z,1001.68
2022-11-07T03:02:20.920Z,1001.58
2022-11-07T03:03:21.088Z,1001.63
2022-11-07T03:04:22.344Z,1001.56
2022-11-07T03:05:21.701Z,1001.49
2022-11-07T03:06:22.033Z,1001.56
2022-11-07T03:07:24.201Z,1001.50
2022-11-07T03:08:22.583Z,1001.53
2022-11-07T03:09:24.776Z,1001.83
2022-11-07T03:10:23.155Z,1001.57
2022-11-07T03:11:24.416Z,1001.54
2022-11-07T03:12:25.634Z,1001.47
2022-11-07T03:13:24.035Z,1001.59
2022-11-07T03:14:24.384Z,1001.58
2022-11-07T03:15:24.649Z,1001.59
2022-11-07T03:16:26.836Z,1001.56
2022-11-07T03:17:27.007Z,1001.56
2022-11-07T03:18:26.376Z,1001.63
2022-11-07T03:19:26.788Z,1001.61
2022-11-07T03:20:26.156Z,1001.57
2022-11-07T03:21:27.417Z,1001.55
2022-11-07T03:22:28.641Z,1001.62
2022-11-07T03:23:27.936Z,1001.58
2022-11-07T03:24:27.335Z,1001.61
2022-11-07T03:25:27.648Z,1001.52
2022-11-07T03:26:30.760Z,1001.55
2022-11-07T03:27:31.389Z,1001.55
2022-11-07T03:28:28.557Z,1001.58
2022-11-07T03:29:29.664Z,1001.66
2022-11-07T03:30:30.091Z,1001.59
2022-11-07T03:31:32.306Z,1001.56
2022-11-07T03:32:31.497Z,1001.66
2022-11-07T03:33:31.647Z,1001.53
2022-11-07T03:34:31.233Z,1001.59
2022-11-07T03:35:32.452Z,1001.51
2022-11-07T03:36:30.840Z,1001.57
2022-11-07T03:37:33.020Z,1001.65
2022-11-07T03:38:31.403Z,1001.59
2022-11-07T03:39:31.710Z,1001.50
2022-11-07T03:40:32.901Z,1001.58
2022-11-07T03:41:32.260Z,1001.54
2022-11-07T03:42:32.567Z,1001.59
2022-11-07T03:43:32.871Z,1001.61
2022-11-07T03:44:33.180Z,1001.73
2022-11-07T03:45:35.369Z,1001.51
2022-11-07T03:46:33.758Z,1001.53
2022-11-07T03:47:34.066Z,1001.63
2022-11-07T03:48:36.251Z,1001.53
2022-11-07T03:49:36.458Z,1001.61
2022-11-07T03:50:36.616Z,1001.54
2022-11-07T03:51:36.890Z,1001.67
2022-11-07T03:52:35.517Z,1001.62
2022-11-07T03:53:37.711Z,1001.58
2022-11-07T03:54:37.858Z,1001.58
2022-11-07T03:55:37.152Z,1001.54
2022-11-07T03:56:38.536Z,1001.58
2022-11-07T03:57:38.700Z,1001.55
2022-11-07T03:58:38.878Z,1001.52
2022-11-07T03:59:39.057Z,1001.44
2022-11-07T04:00:39.756Z,1001.60
2022-11-07T04:01:40.068Z,1001.52
2022-11-07T04:02:38.565Z,1001.53
2022-11-07T04:03:40.609Z,1001.58
2022-11-07T04:04:40.798Z,1001.60
2022-11-07T04:05:40.987Z,1001.65
2022-11-07T04:06:39.625Z,1001.54
2022-11-07T04:07:39.932Z,1001.55
2022-11-07T04:08:40.255Z,1001.70
2022-11-07T04:09:40.551Z,1001.47
2022-11-07T04:10:42.884Z,1001.61
2022-11-07T04:11:41.165Z,1001.58
2022-11-07T04:12:41.453Z,1001.58
2022-11-07T04:13:41.765Z,1001.65
2022-11-07T04:14:43.945Z,1001.66
2022-11-07T04:15:43.167Z,1001.77
2022-11-07T04:16:44.532Z,1001.64
2022-11-07T04:17:42.913Z,1001.58
2022-11-07T04:18:43.231Z,1001.72
2022-11-07T04:19:43.534Z,1001.73
2022-11-07T04:20:45.721Z,1001.71
2022-11-07T04:21:45.901Z,1001.82
2022-11-07T04:22:46.100Z,1001.81
2022-11-07T04:23:46.296Z,1001.71
2022-11-07T04:24:46.244Z,1001.74
2022-11-07T04:25:48.694Z,1002.06
2022-11-07T04:26:45.603Z,1001.79
2022-11-07T04:27:45.903Z,1001.74
2022-11-07T04:28:46.217Z,1001.68
2022-11-07T04:31:03.852Z,1001.91
2022-11-07T04:32:02.607Z,1001.69
2022-11-07T04:33:02.916Z,1001.92
2022-11-07T04:34:03.225Z,1001.81
2022-11-07T04:35:03.534Z,1001.81
2022-11-07T04:36:03.917Z,1001.92
2022-11-07T04:37:04.088Z,1001.84
2022-11-07T04:38:04.401Z,1001.79
2022-11-07T04:39:04.705Z,1001.87
2022-11-07T04:40:05.028Z,1001.91
2022-11-07T04:41:07.196Z,1001.84
2022-11-07T04:42:07.382Z,1001.86
2022-11-07T04:43:05.894Z,1001.89
2022-11-07T04:44:06.195Z,1001.89
2022-11-07T04:45:06.496Z,1001.85
2022-11-07T04:46:06.860Z,1001.90
2022-11-07T04:47:07.033Z,1002.00
2022-11-07T04:48:07.369Z,1001.99
2022-11-07T04:49:07.667Z,1001.92
2022-11-07T04:50:07.976Z,1002.08
2022-11-07T04:51:11.128Z,1001.95
2022-11-07T04:52:08.538Z,1001.97
2022-11-07T04:53:08.844Z,1001.94
2022-11-07T04:54:09.161Z,1001.94
2022-11-07T04:55:12.280Z,1001.99
2022-11-07T04:56:09.857Z,1001.85
2022-11-07T04:57:12.995Z,1002.04
2022-11-07T04:58:11.133Z,1001.98
2022-11-07T04:59:11.471Z,1001.92
2022-11-07T05:00:11.719Z,1002.10
2022-11-07T05:01:14.034Z,1002.02
2022-11-07T05:02:13.397Z,1001.88
2022-11-07T05:03:11.824Z,1002.13
2022-11-07T05:04:11.896Z,1002.04
2022-11-07T05:05:12.196Z,1002.16
2022-11-07T05:06:15.378Z,1001.97
2022-11-07T05:07:15.569Z,1002.07
2022-11-07T05:08:14.800Z,1002.10
2022-11-07T05:09:14.432Z,1002.08
2022-11-07T05:10:14.592Z,1002.04
2022-11-07T05:11:17.327Z,1002.06
2022-11-07T05:12:15.168Z,1002.03
2022-11-07T05:13:16.796Z,1002.03
2022-11-07T05:14:16.611Z,1002.05
2022-11-07T05:15:15.903Z,1002.05
2022-11-07T05:16:18.766Z,1002.04
2022-11-07T05:17:16.480Z,1002.12
2022-11-07T05:18:17.859Z,1002.03
2022-11-07T05:19:16.244Z,1002.17
2022-11-07T05:20:16.553Z,1002.15
2022-11-07T05:21:17.887Z,1002.22
2022-11-07T05:22:17.131Z,1002.18
2022-11-07T05:23:19.114Z,1002.12
2022-11-07T05:24:17.740Z,1002.33
2022-11-07T05:25:19.922Z,1002.17
2022-11-07T05:26:19.203Z,1002.08
2022-11-07T05:27:18.574Z,1002.15
2022-11-07T05:28:28.046Z,1002.04
2022-11-07T05:29:20.164Z,1002.07
2022-11-07T05:30:19.405Z,1002.11
2022-11-07T05:31:23.045Z,1002.21
2022-11-07T05:32:21.781Z,1002.29
2022-11-07T05:33:20.290Z,1002.20
2022-11-07T05:34:22.482Z,1002.28
2022-11-07T05:35:21.668Z,1002.36
2022-11-07T05:36:22.873Z,1002.25
2022-11-07T05:37:23.053Z,1002.29
2022-11-07T05:38:23.243Z,1002.22
2022-11-07T05:39:23.910Z,1002.22
2022-11-07T05:40:24.088Z,1002.26
2022-11-07T05:41:24.280Z,1002.21
2022-11-07T05:42:24.458Z,1002.26
2022-11-07T05:43:24.163Z,1002.21
2022-11-07T05:44:23.534Z,1002.34
2022-11-07T05:45:25.707Z,1002.31
2022-11-07T05:46:25.882Z,1002.36
2022-11-07T05:47:26.064Z,1002.23
2022-11-07T05:48:26.249Z,1002.46
2022-11-07T05:49:26.910Z,1002.27
2022-11-07T05:50:27.083Z,1002.33
2022-11-07T05:51:27.240Z,1002.29
2022-11-07T05:52:27.429Z,1002.57
2022-11-07T05:53:28.144Z,1002.39
2022-11-07T05:54:26.500Z,1002.50
2022-11-07T05:55:28.683Z,1002.57
2022-11-07T05:56:28.503Z,1002.33
2022-11-07T05:57:27.372Z,1002.39
2022-11-07T05:58:29.548Z,1002.47
2022-11-07T05:59:27.928Z,1002.52
2022-11-07T06:00:31.111Z,1002.45
2022-11-07T06:01:30.443Z,1002.50
2022-11-07T06:02:28.996Z,1002.39
2022-11-07T06:03:29.146Z,1002.40
2022-11-07T06:04:31.328Z,1002.35
2022-11-07T06:05:29.721Z,1002.72
2022-11-07T06:06:31.898Z,1002.38
2022-11-07T06:07:30.278Z,1002.37
2022-11-07T06:08:30.600Z,1002.38
2022-11-07T06:09:32.765Z,1002.54
2022-11-07T06:10:31.169Z,1002.48
2022-11-07T06:11:33.355Z,1002.58
2022-11-07T06:12:31.717Z,1002.40
2022-11-07T06:13:32.038Z,1002.42
2022-11-07T06:14:34.300Z,1002.42
2022-11-07T06:15:32.648Z,1002.45
2022-11-07T06:16:34.838Z,1002.44
2022-11-07T06:17:33.228Z,1002.48
2022-11-07T06:18:36.576Z,1002.51
2022-11-07T06:19:36.741Z,1002.57
2022-11-07T06:20:34.143Z,1002.39
2022-11-07T06:21:36.391Z,1002.37
2022-11-07T06:22:36.570Z,1002.43
2022-11-07T06:23:35.087Z,1002.52
2022-11-07T06:24:35.430Z,1002.84
2022-11-07T06:25:35.772Z,1002.45
2022-11-07T06:26:36.114Z,1002.53
2022-11-07T06:27:38.288Z,1002.50
2022-11-07T06:28:36.708Z,1002.46
2022-11-07T06:29:36.918Z,1002.54
2022-11-07T06:30:37.297Z,1002.59
2022-11-07T06:31:39.457Z,1002.62
2022-11-07T06:32:39.624Z,1002.63
2022-11-07T06:33:38.150Z,1002.64
2022-11-07T06:34:40.347Z,1002.69
2022-11-07T06:35:38.750Z,1002.91
2022-11-07T06:36:39.091Z,1002.60
2022-11-07T06:37:41.271Z,1002.63
2022-11-07T06:38:39.683Z,1002.65
2022-11-07T06:39:40.022Z,1002.53
2022-11-07T06:40:40.435Z,1002.66
2022-11-07T06:41:42.544Z,1002.66
2022-11-07T06:42:42.734Z,1002.84
2022-11-07T06:43:41.253Z,1002.57
2022-11-07T06:44:43.444Z,1002.63
2022-11-07T06:45:43.622Z,1002.67
2022-11-07T06:46:43.791Z,1002.81
2022-11-07T06:47:43.975Z,1002.72
2022-11-07T06:48:44.677Z,1002.71
2022-11-07T06:49:43.086Z,1002.79
2022-11-07T06:50:46.231Z,1002.83
2022-11-07T06:51:47.905Z,1002.83
2022-11-07T06:52:44.732Z,1002.93
2022-11-07T06:53:47.046Z,1002.91
2022-11-07T06:54:45.575Z,1003.02
2022-11-07T06:55:47.288Z,1003.04
2022-11-07T06:56:44.969Z,1002.97
2022-11-07T06:57:47.143Z,1002.98
2022-11-07T06:58:47.331Z,1003.05
2022-11-07T06:59:51.685Z,1003.00
2022-11-07T07:00:47.715Z,1003.07
2022-11-07T07:01:48.394Z,1003.18
2022-11-07T07:03:04.035Z,1003.23
2022-11-07T07:03:47.881Z,1003.13
2022-11-07T07:04:47.167Z,1003.14
2022-11-07T07:05:49.348Z,1003.12
2022-11-07T07:06:48.515Z,1003.04
2022-11-07T07:07:49.883Z,1003.22
2022-11-07T07:08:49.088Z,1003.27
2022-11-07T07:09:49.439Z,1003.16
2022-11-07T07:10:50.684Z,1003.22
2022-11-07T07:11:48.971Z,1003.22
2022-11-07T07:12:49.200Z,1003.23
2022-11-07T07:13:49.431Z,1003.11
2022-11-07T07:14:49.753Z,1003.12
2022-11-07T07:15:51.559Z,1003.20
2022-11-07T07:16:52.127Z,1003.16
2022-11-07T07:17:51.507Z,1003.14
2022-11-07T07:18:50.787Z,1003.11
2022-11-07T07:19:52.970Z,1003.23
2022-11-07T07:20:53.234Z,1003.16
2022-11-07T07:21:52.452Z,1003.25
2022-11-07T07:22:58.984Z,1003.27
2022-11-07T07:23:53.090Z,1003.22
2022-11-07T07:24:52.378Z,1003.21
2022-11-07T07:25:54.556Z,1003.37
2022-11-07T07:26:52.859Z,1003.19
2022-11-07T07:27:53.926Z,1003.20
2022-11-07T07:28:54.285Z,1003.34
2022-11-07T07:29:54.499Z,1003.20
2022-11-07T07:30:53.813Z,1003.25
2022-11-07T07:31:55.980Z,1003.23
2022-11-07T07:32:56.168Z,1003.31
2022-11-07T07:33:54.594Z,1003.20
2022-11-07T07:34:54.822Z,1003.33
2022-11-07T07:35:55.050Z,1003.28
2022-11-07T07:36:55.294Z,1003.26
2022-11-07T07:37:56.469Z,1003.28
2022-11-07T07:38:55.754Z,1003.27
2022-11-07T07:39:55.983Z,1003.28
2022-11-07T07:40:56.215Z,1003.37
2022-11-07T07:41:58.464Z,1003.39
2022-11-07T07:42:58.555Z,1003.15
2022-11-07T07:43:58.733Z,1003.31
2022-11-07T07:44:58.921Z,1003.33
2022-11-07T07:45:59.134Z,1003.25
2022-11-07T07:46:59.834Z,1003.27
2022-11-07T07:48:00.003Z,1003.45
2022-11-07T07:49:00.184Z,1003.40
2022-11-07T07:50:00.872Z,1003.54
2022-11-07T07:50:59.190Z,1003.37
2022-11-07T07:52:01.362Z,1003.29
2022-11-07T07:53:13.871Z,1003.41
2022-11-07T07:54:02.834Z,1003.26
2022-11-07T07:55:00.298Z,1003.39
2022-11-07T07:56:00.509Z,1003.41
2022-11-07T07:57:00.750Z,1003.31
2022-11-07T07:58:02.972Z,1003.47
2022-11-07T07:59:03.143Z,1003.34
2022-11-07T08:00:01.573Z,1003.43
2022-11-07T08:01:01.867Z,1003.40
2022-11-07T08:02:02.181Z,1003.36
2022-11-07T08:03:02.445Z,1003.43
2022-11-07T08:04:04.618Z,1003.37
2022-11-07T08:05:02.905Z,1003.40
2022-11-07T08:06:03.150Z,1003.44
2022-11-07T08:07:03.372Z,1003.50
2022-11-07T08:08:05.546Z,1003.39
2022-11-07T08:09:03.849Z,1003.43
2022-11-07T08:10:26.982Z,1003.35
2022-11-07T08:11:05.325Z,1003.53
2022-11-07T08:12:06.534Z,1003.61
2022-11-07T08:13:06.711Z,1003.41
2022-11-07T08:14:05.260Z,1003.57
2022-11-07T08:15:05.489Z,1003.50
2022-11-07T08:16:05.729Z,1003.55
2022-11-07T08:17:05.958Z,1003.58
2022-11-07T08:18:08.131Z,1003.62
2022-11-07T08:19:08.300Z,1003.55
2022-11-07T08:20:06.721Z,1003.70
2022-11-07T08:21:06.943Z,1003.58
2022-11-07T08:22:07.178Z,1003.59
2022-11-07T08:23:12.691Z,1003.57
2022-11-07T08:24:10.590Z,1003.60
2022-11-07T08:25:07.897Z,1003.69
2022-11-07T08:26:08.126Z,1003.70
2022-11-07T08:27:08.371Z,1003.87
2022-11-07T08:28:08.593Z,1003.80
2022-11-07T08:29:10.837Z,1003.67
2022-11-07T08:30:12.618Z,1003.72
2022-11-07T08:31:12.298Z,1003.74
2022-11-07T08:32:09.613Z,1003.88
2022-11-07T08:33:09.870Z,1003.88
2022-11-07T08:34:12.078Z,1003.81
2022-11-07T08:35:10.491Z,1003.74
2022-11-07T08:36:10.722Z,1003.81
2022-11-07T08:37:11.888Z,1003.95
2022-11-07T08:38:11.279Z,1003.77
2022-11-07T08:39:13.459Z,1003.79
2022-11-07T08:40:11.759Z,1003.95
2022-11-07T08:41:12.950Z,1003.82
2022-11-07T08:42:12.219Z,1003.93
2022-11-07T08:43:14.656Z,1003.82
2022-11-07T08:44:13.762Z,1003.83
2022-11-07T08:45:13.056Z,1003.78
2022-11-07T08:46:15.223Z,1003.98
2022-11-07T08:47:13.529Z,1003.66
2022-11-07T08:48:13.885Z,1003.83
2022-11-07T08:49:14.109Z,1003.88
2022-11-07T08:50:14.335Z,1003.80
2022-11-07T08:51:16.496Z,1004.01
2022-11-07T08:52:16.694Z,1003.83
2022-11-07T08:53:17.225Z,1003.79
2022-11-07T08:54:15.484Z,1003.79
2022-11-07T08:55:15.708Z,1003.74
2022-11-07T08:56:17.920Z,1004.05
2022-11-07T08:57:16.223Z,1003.76
2022-11-07T08:58:18.395Z,1003.84
2022-11-07T08:59:18.576Z,1003.86
2022-11-07T09:00:16.997Z,1004.07
2022-11-07T09:01:19.292Z,1004.04
2022-11-07T09:04:19.329Z,1004.02
2022-11-07T09:05:18.290Z,1003.87
2022-11-07T09:06:18.532Z,1003.91
2022-11-07T09:07:18.785Z,1004.02
2022-11-07T09:08:20.949Z,1003.99
2022-11-07T09:09:19.239Z,1003.92
2022-11-07T09:10:19.589Z,1003.98
2022-11-07T09:11:23.218Z,1004.00
2022-11-07T09:12:20.057Z,1004.11
2022-11-07T09:13:23.179Z,1004.03
2022-11-07T09:14:21.634Z,1003.77
2022-11-07T09:15:21.791Z,1003.99
2022-11-07T09:16:21.226Z,1003.98
2022-11-07T09:17:21.464Z,1004.10
2022-11-07T09:18:23.650Z,1004.18
2022-11-07T09:19:22.024Z,1003.95
2022-11-07T09:20:22.265Z,1003.76
2022-11-07T09:21:24.460Z,1003.87
2022-11-07T09:22:22.771Z,1003.84
2022-11-07T09:23:24.946Z,1003.92
2022-11-07T09:24:23.260Z,1003.96
2022-11-07T09:25:26.394Z,1003.99
2022-11-07T09:26:23.851Z,1003.99
2022-11-07T09:27:24.092Z,1004.01
2022-11-07T09:28:27.755Z,1003.94
2022-11-07T09:29:27.419Z,1004.12
2022-11-07T09:30:25.735Z,1004.14
2022-11-07T09:31:26.129Z,1003.94
2022-11-07T09:32:43.763Z,1004.19
2022-11-07T09:33:28.518Z,1003.95
2022-11-07T09:34:27.732Z,1003.98
2022-11-07T09:35:27.239Z,1004.12
2022-11-07T09:36:27.463Z,1004.14
2022-11-07T09:37:26.762Z,1004.07
2022-11-07T09:38:27.961Z,1004.21
2022-11-07T09:39:28.215Z,1004.00
2022-11-07T09:40:28.354Z,1004.15
2022-11-07T09:41:28.762Z,1004.31
2022-11-07T09:42:28.038Z,1004.21
2022-11-07T09:43:30.220Z,1004.15
2022-11-07T09:44:32.381Z,1004.23
2022-11-07T09:45:29.761Z,1004.15
2022-11-07T09:46:29.060Z,1004.17
2022-11-07T09:47:31.231Z,1004.28
2022-11-07T09:48:31.414Z,1004.14
2022-11-07T09:49:30.806Z,1004.14
2022-11-07T09:50:30.977Z,1004.22
2022-11-07T09:51:30.385Z,1004.09
2022-11-07T09:52:31.554Z,1004.21
2022-11-07T09:53:32.828Z,1004.25
2022-11-07T09:54:32.087Z,1004.18
2022-11-07T09:55:32.294Z,1004.42
2022-11-07T09:56:31.717Z,1004.25
2022-11-07T09:57:31.947Z,1004.20
2022-11-07T09:58:34.169Z,1004.27
2022-11-07T09:59:35.232Z,1004.17
2022-11-07T10:00:32.800Z,1004.28
2022-11-07T10:01:33.136Z,1004.33
2022-11-07T10:02:33.407Z,1004.57
2022-11-07T10:03:34.596Z,1004.25
2022-11-07T10:04:35.833Z,1004.20
2022-11-07T10:05:35.933Z,1004.34
2022-11-07T10:06:36.107Z,1004.28
2022-11-07T10:07:36.785Z,1004.22
2022-11-07T10:08:36.987Z,1004.30
2022-11-07T10:09:35.415Z,1004.21
2022-11-07T10:10:37.617Z,1004.29
2022-11-07T10:11:37.797Z,1004.61
2022-11-07T10:12:43.165Z,1004.32
2022-11-07T10:13:39.179Z,1004.51
2022-11-07T10:14:38.863Z,1004.38
2022-11-07T10:15:39.039Z,1004.49
2022-11-07T10:16:37.480Z,1004.35
2022-11-07T10:17:39.656Z,1004.54
2022-11-07T10:18:39.844Z,1004.49
2022-11-07T10:19:39.994Z,1004.47
2022-11-07T10:20:38.780Z,1004.51
2022-11-07T10:21:40.460Z,1004.60
2022-11-07T10:22:40.645Z,1004.59
2022-11-07T10:23:41.328Z,1004.65
2022-11-07T10:24:41.509Z,1004.61
2022-11-07T10:25:40.063Z,1004.70
2022-11-07T10:26:40.278Z,1004.75
2022-11-07T10:27:42.468Z,1004.66
2022-11-07T10:28:42.665Z,1004.68
2022-11-07T10:29:44.692Z,1004.78
2022-11-07T10:30:43.272Z,1004.96
2022-11-07T10:31:41.575Z,1004.73
2022-11-07T10:32:41.815Z,1004.68
2022-11-07T10:33:43.993Z,1004.77
2022-11-07T10:34:42.299Z,1004.68
2022-11-07T10:35:42.535Z,1004.69
2022-11-07T10:36:42.780Z,1004.63
2022-11-07T10:37:43.020Z,1004.77
2022-11-07T10:38:43.295Z,1004.80
2022-11-07T10:39:43.520Z,1004.75
2022-11-07T10:40:43.751Z,1004.83
2022-11-07T10:41:43.980Z,1004.66
2022-11-07T10:42:44.209Z,1004.84
2022-11-07T10:43:46.380Z,1004.74
2022-11-07T10:44:44.685Z,1004.83
2022-11-07T10:45:44.915Z,1004.77
2022-11-07T10:46:46.759Z,1004.78
2022-11-07T10:47:45.410Z,1004.84
2022-11-07T10:48:47.599Z,1004.86
2022-11-07T10:49:45.901Z,1004.83
2022-11-07T10:50:46.167Z,1004.84
2022-11-07T10:51:46.404Z,1004.81
2022-11-07T10:52:46.647Z,1004.96
2022-11-07T10:53:46.882Z,1004.80
2022-11-07T10:54:49.065Z,1004.89
2022-11-07T10:55:49.244Z,1004.88
2022-11-07T10:56:49.442Z,1004.81
2022-11-07T10:57:47.993Z,1004.84
2022-11-07T10:58:48.224Z,1004.85
2022-11-07T10:59:50.407Z,1004.77
2022-11-07T11:00:48.750Z,1004.75
2022-11-07T11:01:50.943Z,1004.82
2022-11-07T11:02:49.226Z,1004.88
2022-11-07T11:03:51.415Z,1004.83
2022-11-07T11:04:51.604Z,1004.80
2022-11-07T11:05:50.017Z,1004.96
2022-11-07T11:06:50.239Z,1004.89
2022-11-07T11:07:50.465Z,1004.79
2022-11-07T11:08:50.698Z,1004.83
2022-11-07T11:09:50.928Z,1004.86
2022-11-07T11:10:53.118Z,1004.89
2022-11-07T11:11:51.411Z,1004.90
2022-11-07T11:12:51.757Z,1004.87
2022-11-07T11:13:51.989Z,1004.89
2022-11-07T11:14:54.163Z,1004.84
2022-11-07T11:15:52.460Z,1004.83
2022-11-07T11:16:52.740Z,1004.83
2022-11-07T11:17:52.992Z,1004.81
2022-11-07T11:18:55.179Z,1004.81
2022-11-07T11:19:55.354Z,1004.73
2022-11-07T11:20:53.894Z,1004.75
2022-11-07T11:21:54.121Z,1004.82
2022-11-07T11:22:54.475Z,1004.74
2022-11-07T11:23:54.692Z,1004.96
2022-11-07T11:24:56.882Z,1004.88
2022-11-07T11:25:55.172Z,1004.81
2022-11-07T11:26:55.417Z,1004.86
2022-11-07T11:27:55.656Z,1004.82
2022-11-07T11:28:57.834Z,1004.80
2022-11-07T11:29:58.011Z,1004.81
2022-11-07T11:30:58.205Z,1004.84
2022-11-07T11:31:56.770Z,1004.81
2022-11-07T11:32:57.014Z,1004.66
2022-11-07T11:34:00.144Z,1004.81
2022-11-07T11:34:57.482Z,1004.72
2022-11-07T11:35:59.668Z,1004.64
2022-11-07T11:36:57.978Z,1004.82
2022-11-07T11:38:01.105Z,1004.82
2022-11-07T11:39:00.335Z,1004.86
2022-11-07T11:39:58.894Z,1004.79
2022-11-07T11:41:07.578Z,1004.73
2022-11-07T11:42:02.186Z,1004.82
2022-11-07T11:42:59.650Z,1004.75
2022-11-07T11:44:02.768Z,1004.74
2022-11-07T11:45:01.253Z,1004.85
2022-11-07T11:46:01.412Z,1004.78
2022-11-07T11:47:02.766Z,1004.73
2022-11-07T11:48:01.091Z,1004.80
2022-11-07T11:49:02.149Z,1004.80
2022-11-07T11:50:02.521Z,1004.79
2022-11-07T11:51:01.826Z,1004.75
2022-11-07T11:52:03.993Z,1004.99
2022-11-07T11:53:02.302Z,1004.82
2022-11-07T11:54:04.487Z,1004.79
2022-11-07T11:55:04.688Z,1004.75
2022-11-07T11:56:04.884Z,1004.83
2022-11-07T11:57:05.081Z,1004.83
2022-11-07T11:58:05.772Z,1004.82
2022-11-07T11:59:05.955Z,1004.78
2022-11-07T12:00:06.147Z,1004.74
2022-11-07T12:01:06.314Z,1004.80
2022-11-07T12:02:07.059Z,1004.86
2022-11-07T12:03:07.177Z,1004.82
2022-11-07T12:04:08.278Z,1004.79
2022-11-07T12:05:07.570Z,1004.83
2022-11-07T12:06:07.751Z,1004.87
2022-11-07T12:07:07.930Z,1004.89
2022-11-07T12:08:08.619Z,1004.95
2022-11-07T12:09:11.418Z,1004.87
2022-11-07T12:10:09.971Z,1004.99
2022-11-07T12:11:07.669Z,1004.95
2022-11-07T12:12:08.855Z,1004.97